createdAt,value
2018-05-02T00:02:06.051Z,1.80
2018-05-02T00:04:38.785Z,2.23
2018-05-02T00:07:11.415Z,2.20
2018-05-02T00:09:43.774Z,2.00
2018-05-02T00:12:16.265Z,2.07
2018-05-02T00:14:48.636Z,2.27
2018-05-02T00:17:21.254Z,2.40
2018-05-02T00:19:54.508Z,1.67
2018-05-02T00:22:26.919Z,2.07
2018-05-02T00:24:59.682Z,2.00
2018-05-02T00:27:32.634Z,1.83
2018-05-02T00:30:05.663Z,2.57
2018-05-02T00:32:38.459Z,2.10
2018-05-02T00:35:12.121Z,1.80
2018-05-02T00:37:44.564Z,2.13
2018-05-02T00:40:17.034Z,2.57
2018-05-02T00:42:49.898Z,1.90
2018-05-02T00:45:23.125Z,2.50
2018-05-02T00:47:55.883Z,1.90
2018-05-02T00:50:28.305Z,1.77
2018-05-02T00:53:01.600Z,2.30
2018-05-02T00:55:33.979Z,2.60
2018-05-02T00:58:07.505Z,2.17
2018-05-02T01:00:40.077Z,1.90
2018-05-02T01:03:12.653Z,2.23
2018-05-02T01:05:45.232Z,2.40
2018-05-02T01:08:18.627Z,1.80
2018-05-02T01:10:51.107Z,2.20
2018-05-02T01:13:23.783Z,2.30
2018-05-02T01:15:57.025Z,1.97
2018-05-02T01:18:30.409Z,1.80
2018-05-02T01:21:04.498Z,1.97
2018-05-02T01:23:37.139Z,1.77
2018-05-02T01:26:10.346Z,1.87
2018-05-02T01:28:43.079Z,2.10
2018-05-02T01:31:15.526Z,2.20
2018-05-02T01:33:49.712Z,1.90
2018-05-02T01:36:22.535Z,1.73
2018-05-02T01:38:55.456Z,2.30
2018-05-02T01:41:29.037Z,1.87
2018-05-02T01:44:02.033Z,2.00
2018-05-02T01:46:34.439Z,1.97
2018-05-02T01:49:21.517Z,1.60
2018-05-02T01:51:55.426Z,1.73
2018-05-02T01:54:28.179Z,2.03
2018-05-02T01:57:01.502Z,2.20
2018-05-02T01:59:34.259Z,2.00
2018-05-02T02:02:07.681Z,2.10
2018-05-02T02:04:41.014Z,2.00
2018-05-02T02:07:13.793Z,1.60
2018-05-02T02:09:46.150Z,1.70
2018-05-02T02:12:18.667Z,2.27
2018-05-02T02:14:51.185Z,1.90
2018-05-02T02:17:23.759Z,1.87
2018-05-02T02:19:56.441Z,2.17
2018-05-02T02:22:29.700Z,1.77
2018-05-02T02:25:03.206Z,1.90
2018-05-02T02:27:35.885Z,1.60
2018-05-02T02:30:08.333Z,1.60
2018-05-02T02:32:40.757Z,1.60
2018-05-02T02:35:13.436Z,2.00
2018-05-02T02:37:47.379Z,1.70
2018-05-02T02:40:20.008Z,1.97
2018-05-02T02:42:53.475Z,1.70
2018-05-02T02:45:26.056Z,1.80
2018-05-02T02:47:58.681Z,1.80
2018-05-02T02:50:31.454Z,1.57
2018-05-02T02:53:03.892Z,1.53
2018-05-02T02:55:36.282Z,2.07
2018-05-02T02:58:09.202Z,1.73
2018-05-02T03:00:42.946Z,1.60
2018-05-02T03:03:16.080Z,1.40
2018-05-02T03:05:48.819Z,1.50
2018-05-02T03:08:22.111Z,1.80
2018-05-02T03:10:54.894Z,1.80
2018-05-02T03:13:28.163Z,1.77
2018-05-02T03:16:00.533Z,1.80
2018-05-02T03:18:33.902Z,2.20
2018-05-02T03:21:06.639Z,2.03
2018-05-02T03:23:39.835Z,1.63
2018-05-02T03:26:14.326Z,1.40
2018-05-02T03:28:46.947Z,1.50
2018-05-02T03:31:20.174Z,3.33
2018-05-02T03:33:53.560Z,1.90
2018-05-02T03:36:27.105Z,1.33
2018-05-02T03:38:59.791Z,1.97
2018-05-02T03:41:32.429Z,1.70
2018-05-02T03:44:06.412Z,1.87
2018-05-02T03:46:39.351Z,1.70
2018-05-02T03:49:12.599Z,1.87
2018-05-02T03:51:45.412Z,2.00
2018-05-02T03:54:19.477Z,1.70
2018-05-02T03:56:52.099Z,1.90
2018-05-02T03:59:43.306Z,1.90
2018-05-02T04:02:34.454Z,1.50
2018-05-02T04:05:26.158Z,1.77
2018-05-02T04:07:59.309Z,1.70
2018-05-02T04:10:34.007Z,1.40
2018-05-02T04:13:07.187Z,1.77
2018-05-02T04:15:40.157Z,1.90
2018-05-02T04:18:13.801Z,1.70
2018-05-02T04:20:47.201Z,1.83
2018-05-02T04:23:20.627Z,2.13
2018-05-02T04:25:53.113Z,1.60
2018-05-02T04:28:26.274Z,1.60
2018-05-02T04:30:58.887Z,1.80
2018-05-02T04:33:31.293Z,1.60
2018-05-02T04:36:04.595Z,1.80
2018-05-02T04:38:37.305Z,1.60
2018-05-02T04:41:09.824Z,1.87
2018-05-02T04:43:43.866Z,1.53
2018-05-02T04:46:17.091Z,1.77
2018-05-02T04:48:50.060Z,1.70
2018-05-02T04:51:22.473Z,1.40
2018-05-02T04:53:55.911Z,2.17
2018-05-02T04:56:28.361Z,1.90
2018-05-02T04:59:00.913Z,1.90
2018-05-02T05:01:33.589Z,1.70
2018-05-02T05:04:06.912Z,1.47
2018-05-02T05:06:39.377Z,1.67
2018-05-02T05:09:12.045Z,2.00
2018-05-02T05:11:44.592Z,2.00
2018-05-02T05:14:18.391Z,1.80
2018-05-02T05:16:51.102Z,1.70
2018-05-02T05:19:24.538Z,1.93
2018-05-02T05:21:58.169Z,1.70
2018-05-02T05:24:30.593Z,2.00
2018-05-02T05:27:04.073Z,1.50
2018-05-02T05:29:37.362Z,1.63
2018-05-02T05:32:10.120Z,1.60
2018-05-02T05:34:43.594Z,2.07
2018-05-02T05:37:16.809Z,1.30
2018-05-02T05:39:49.516Z,1.60
2018-05-02T05:42:22.754Z,2.07
2018-05-02T05:44:55.547Z,1.50
2018-05-02T05:47:28.061Z,1.80
2018-05-02T05:50:01.577Z,1.77
2018-05-02T05:52:34.255Z,1.90
2018-05-02T05:55:06.826Z,1.83
2018-05-02T05:57:39.549Z,1.70
2018-05-02T06:00:12.002Z,2.00
2018-05-02T06:02:46.131Z,2.33
2018-05-02T06:05:19.309Z,1.73
2018-05-02T06:07:52.268Z,2.60
2018-05-02T06:10:25.619Z,2.10
2018-05-02T06:12:58.263Z,1.90
2018-05-02T06:15:30.664Z,2.10
2018-05-02T06:18:04.057Z,1.97
2018-05-02T06:20:37.249Z,2.03
2018-05-02T06:23:10.291Z,2.10
2018-05-02T06:25:43.391Z,1.90
2018-05-02T06:28:17.283Z,1.83
2018-05-02T06:30:50.534Z,2.20
2018-05-02T06:33:23.293Z,1.87
2018-05-02T06:35:56.333Z,2.00
2018-05-02T06:38:28.985Z,1.70
2018-05-02T06:41:02.253Z,2.30
2018-05-02T06:43:35.087Z,2.10
2018-05-02T06:46:07.679Z,2.07
2018-05-02T06:48:40.118Z,2.30
2018-05-02T06:51:13.556Z,1.90
2018-05-02T06:53:47.698Z,2.03
2018-05-02T06:56:21.286Z,2.17
2018-05-02T06:58:54.094Z,2.10
2018-05-02T07:01:26.527Z,1.90
2018-05-02T07:04:00.691Z,2.30
2018-05-02T07:06:33.239Z,1.80
2018-05-02T07:09:05.856Z,2.57
2018-05-02T07:11:39.059Z,2.17
2018-05-02T07:14:11.840Z,2.37
2018-05-02T07:16:44.295Z,2.10
2018-05-02T07:19:18.418Z,2.30
2018-05-02T07:21:51.344Z,1.87
2018-05-02T07:24:24.571Z,1.90
2018-05-02T07:26:58.680Z,2.37
2018-05-02T07:29:32.097Z,2.83
2018-05-02T07:32:05.061Z,2.17
2018-05-02T07:34:37.777Z,2.53
2018-05-02T07:37:10.780Z,2.80
2018-05-02T07:39:44.436Z,2.20
2018-05-02T07:42:17.458Z,1.80
2018-05-02T07:44:50.236Z,1.83
2018-05-02T07:47:23.802Z,2.53
2018-05-02T07:49:57.375Z,2.17
2018-05-02T07:52:31.236Z,2.77
2018-05-02T07:55:03.670Z,2.50
2018-05-02T07:57:36.185Z,2.97
2018-05-02T08:00:08.734Z,2.70
2018-05-02T08:02:42.136Z,3.70
2018-05-02T08:05:14.813Z,2.90
2018-05-02T08:07:48.570Z,2.20
2018-05-02T08:10:21.693Z,2.30
2018-05-02T08:12:54.277Z,2.57
2018-05-02T08:15:27.645Z,2.63
2018-05-02T08:18:01.809Z,2.90
2018-05-02T08:20:34.498Z,3.00
2018-05-02T08:23:06.885Z,3.20
2018-05-02T08:25:39.400Z,3.03
2018-05-02T08:28:11.984Z,3.33
2018-05-02T08:30:45.295Z,3.80
2018-05-02T08:33:18.568Z,2.73
2018-05-02T08:35:51.765Z,2.70
2018-05-02T08:38:24.543Z,2.83
2018-05-02T08:40:57.019Z,5.90
2018-05-02T08:43:31.155Z,3.53
2018-05-02T08:46:04.145Z,2.70
2018-05-02T08:48:36.870Z,3.00
2018-05-02T08:51:09.514Z,2.60
2018-05-02T08:53:42.181Z,2.20
2018-05-02T08:56:15.738Z,2.83
2018-05-02T08:58:48.765Z,2.80
2018-05-02T09:01:21.369Z,2.50
2018-05-02T09:03:54.647Z,2.63
2018-05-02T09:06:27.150Z,3.33
2018-05-02T09:08:59.691Z,3.10
2018-05-02T09:11:32.979Z,2.87
2018-05-02T09:14:05.950Z,2.97
2018-05-02T09:16:38.385Z,2.73
2018-05-02T09:19:13.419Z,2.60
2018-05-02T09:21:46.169Z,3.33
2018-05-02T09:24:18.704Z,2.53
2018-05-02T09:26:52.351Z,2.53
2018-05-02T09:29:24.777Z,2.80
2018-05-02T09:31:57.241Z,2.97
2018-05-02T09:34:29.831Z,3.33
2018-05-02T09:37:03.220Z,2.27
2018-05-02T09:39:36.662Z,3.50
2018-05-02T09:42:10.155Z,3.10
2018-05-02T09:44:43.527Z,3.30
2018-05-02T09:47:16.518Z,3.53
2018-05-02T09:49:49.488Z,3.30
2018-05-02T09:52:21.971Z,3.23
2018-05-02T09:54:55.292Z,3.40
2018-05-02T09:57:28.675Z,4.20
2018-05-02T10:00:01.645Z,3.47
2018-05-02T10:02:34.828Z,2.63
2018-05-02T10:05:07.529Z,3.60
2018-05-02T10:07:41.011Z,3.40
2018-05-02T10:10:14.039Z,3.70
2018-05-02T10:12:46.899Z,3.57
2018-05-02T10:15:20.314Z,3.20
2018-05-02T10:17:53.586Z,3.00
2018-05-02T10:20:27.023Z,3.50
2018-05-02T10:22:59.799Z,3.43
2018-05-02T10:25:32.840Z,3.43
2018-05-02T10:28:06.031Z,4.00
2018-05-02T10:30:38.788Z,3.57
2018-05-02T10:33:12.169Z,4.07
2018-05-02T10:35:44.741Z,2.90
2018-05-02T10:38:18.171Z,2.90
2018-05-02T10:40:50.623Z,3.40
2018-05-02T10:43:23.952Z,3.70
2018-05-02T10:45:56.517Z,3.70
2018-05-02T10:48:29.168Z,3.63
2018-05-02T10:51:01.732Z,3.33
2018-05-02T10:53:34.211Z,4.00
2018-05-02T10:56:08.258Z,3.57
2018-05-02T10:58:40.981Z,4.50
2018-05-02T11:01:16.287Z,4.53
2018-05-02T11:03:49.309Z,4.53
2018-05-02T11:06:23.173Z,4.83
2018-05-02T11:08:56.386Z,3.90
2018-05-02T11:11:29.228Z,4.30
2018-05-02T11:14:02.054Z,5.53
2018-05-02T11:16:34.753Z,5.63
2018-05-02T11:19:07.381Z,4.40
2018-05-02T11:21:41.086Z,3.50
2018-05-02T11:24:13.815Z,3.87
2018-05-02T11:26:46.441Z,4.20
2018-05-02T11:29:18.951Z,3.90
2018-05-02T11:31:51.484Z,4.13
2018-05-02T11:34:24.045Z,3.83
2018-05-02T11:36:56.642Z,2.67
2018-05-02T11:39:29.282Z,3.40
2018-05-02T11:42:02.614Z,3.83
2018-05-02T11:44:35.425Z,3.17
2018-05-02T11:47:09.340Z,3.23
2018-05-02T11:49:42.023Z,3.27
2018-05-02T11:52:14.404Z,4.70
2018-05-02T11:54:46.988Z,4.27
2018-05-02T11:57:20.207Z,4.30
2018-05-02T11:59:53.055Z,3.37
2018-05-02T12:02:25.505Z,3.17
2018-05-02T12:04:59.130Z,3.90
2018-05-02T12:07:32.378Z,4.93
2018-05-02T12:10:05.686Z,6.57
2018-05-02T12:12:38.934Z,4.67
2018-05-02T12:15:11.419Z,5.00
2018-05-02T12:17:43.910Z,4.30
2018-05-02T12:20:16.735Z,4.90
2018-05-02T12:22:49.542Z,4.73
2018-05-02T12:25:22.848Z,5.97
2018-05-02T12:27:55.795Z,5.80
2018-05-02T12:30:29.127Z,3.90
2018-05-02T12:33:01.913Z,4.63
2018-05-02T12:35:34.603Z,6.00
2018-05-02T12:38:07.112Z,5.57
2018-05-02T12:40:40.393Z,6.07
2018-05-02T12:43:13.103Z,5.50
2018-05-02T12:45:45.610Z,4.63
2018-05-02T12:48:18.779Z,4.80
2018-05-02T12:50:52.383Z,4.10
2018-05-02T12:53:25.166Z,5.00
2018-05-02T12:55:57.958Z,6.00
2018-05-02T12:58:31.077Z,6.57
2018-05-02T13:01:03.598Z,5.93
2018-05-02T13:03:36.005Z,6.20
2018-05-02T13:06:09.610Z,6.30
2018-05-02T13:08:42.092Z,4.50
2018-05-02T13:11:15.311Z,6.00
2018-05-02T13:13:47.952Z,4.97
2018-05-02T13:16:20.528Z,5.90
2018-05-02T13:18:53.011Z,5.30
2018-05-02T13:21:26.160Z,5.23
2018-05-02T13:23:58.975Z,5.03
2018-05-02T13:26:33.092Z,5.67
2018-05-02T13:29:05.759Z,5.30
2018-05-02T13:31:39.401Z,4.33
2018-05-02T13:34:13.272Z,5.47
2018-05-02T13:36:46.603Z,5.07
2018-05-02T13:39:19.590Z,4.40
2018-05-02T13:41:53.855Z,4.00
2018-05-02T13:44:27.290Z,4.60
2018-05-02T13:47:00.565Z,4.40
2018-05-02T13:49:33.477Z,5.03
2018-05-02T13:52:08.438Z,5.60
2018-05-02T13:54:42.980Z,4.70
2018-05-02T13:57:16.316Z,4.13
2018-05-02T13:59:49.598Z,3.40
2018-05-02T14:02:22.291Z,4.17
2018-05-02T14:04:54.971Z,3.47
2018-05-02T14:07:28.423Z,4.30
2018-05-02T14:10:00.916Z,5.23
2018-05-02T14:12:34.189Z,3.27
2018-05-02T14:15:06.834Z,4.50
2018-05-02T14:17:39.269Z,4.43
2018-05-02T14:20:11.746Z,4.63
2018-05-02T14:22:51.149Z,5.30
2018-05-02T14:25:23.777Z,4.00
2018-05-02T14:27:56.940Z,3.50
2018-05-02T14:30:29.603Z,3.60
2018-05-02T14:33:02.100Z,4.07
2018-05-02T14:35:36.169Z,3.50
2018-05-02T14:38:09.711Z,3.27
2018-05-02T14:40:42.415Z,4.07
2018-05-02T14:43:16.080Z,3.70
2018-05-02T14:45:48.968Z,4.23
2018-05-02T14:48:21.997Z,4.00
2018-05-02T14:50:54.738Z,4.30
2018-05-02T14:53:27.373Z,2.93
2018-05-02T14:56:00.532Z,2.80
2018-05-02T14:58:35.146Z,3.20
2018-05-02T15:01:08.266Z,2.60
2018-05-02T15:03:40.751Z,3.40
2018-05-02T15:06:13.445Z,3.93
2018-05-02T15:08:45.874Z,3.17
2018-05-02T15:11:18.854Z,3.57
2018-05-02T15:13:51.782Z,3.90
2018-05-02T15:16:24.422Z,3.07
2018-05-02T15:18:56.813Z,2.77
2018-05-02T15:21:29.370Z,2.53
2018-05-02T15:24:01.936Z,3.57
2018-05-02T15:26:35.244Z,3.90
2018-05-02T15:29:08.054Z,4.00
2018-05-02T15:31:41.404Z,3.40
2018-05-02T15:34:14.729Z,3.70
2018-05-02T15:36:48.912Z,3.50
2018-05-02T15:39:21.415Z,4.27
2018-05-02T15:41:55.626Z,3.47
2018-05-02T15:44:28.280Z,3.73
2018-05-02T15:47:01.697Z,2.43
2018-05-02T15:49:34.825Z,5.20
2018-05-02T15:52:08.134Z,3.80
2018-05-02T15:54:40.911Z,3.97
2018-05-02T15:57:13.655Z,2.90
2018-05-02T15:59:47.151Z,2.80
2018-05-02T16:02:20.274Z,2.57
2018-05-02T16:04:53.055Z,3.40
2018-05-02T16:07:25.625Z,3.27
2018-05-02T16:09:58.236Z,3.37
2018-05-02T16:12:30.996Z,2.93
2018-05-02T16:15:04.344Z,2.80
2018-05-02T16:17:37.763Z,3.57
2018-05-02T16:20:11.754Z,3.80
2018-05-02T16:22:44.423Z,3.50
2018-05-02T16:25:17.765Z,2.63
2018-05-02T16:27:50.382Z,3.17
2018-05-02T16:30:23.730Z,3.07
2018-05-02T16:32:57.065Z,3.00
2018-05-02T16:35:29.631Z,2.40
2018-05-02T16:38:03.079Z,3.00
2018-05-02T16:40:36.306Z,3.10
2018-05-02T16:43:09.090Z,2.37
2018-05-02T16:45:42.432Z,2.93
2018-05-02T16:48:15.562Z,2.47
2018-05-02T16:50:48.293Z,2.90
2018-05-02T16:53:21.655Z,2.70
2018-05-02T16:55:54.337Z,2.57
2018-05-02T16:58:27.655Z,1.83
2018-05-02T17:01:00.167Z,3.00
2018-05-02T17:03:33.459Z,3.40
2018-05-02T17:06:06.100Z,21.40
2018-05-02T17:08:39.110Z,12.27
2018-05-02T17:11:12.160Z,7.43
2018-05-02T17:13:46.101Z,5.00
2018-05-02T17:16:19.111Z,4.57
2018-05-02T17:18:51.819Z,4.60
2018-05-02T17:21:24.673Z,3.33
2018-05-02T17:23:58.979Z,3.80
2018-05-02T17:26:32.818Z,3.07
2018-05-02T17:29:05.612Z,3.20
2018-05-02T17:31:38.847Z,3.20
2018-05-02T17:34:11.534Z,3.03
2018-05-02T17:36:44.008Z,3.83
2018-05-02T17:39:16.682Z,2.90
2018-05-02T17:41:50.675Z,3.07
2018-05-02T17:44:23.354Z,3.63
2018-05-02T17:46:56.647Z,3.13
2018-05-02T17:49:30.695Z,3.03
2018-05-02T17:52:03.379Z,3.13
2018-05-02T17:54:36.895Z,3.10
2018-05-02T17:57:10.143Z,3.60
2018-05-02T17:59:44.254Z,3.17
2018-05-02T18:02:16.917Z,2.40
2018-05-02T18:04:50.305Z,3.67
2018-05-02T18:07:24.151Z,2.97
2018-05-02T18:09:57.131Z,3.03
2018-05-02T18:12:31.229Z,3.30
2018-05-02T18:15:04.816Z,3.30
2018-05-02T18:17:38.461Z,3.10
2018-05-02T18:20:11.721Z,3.20
2018-05-02T18:22:44.880Z,3.03
2018-05-02T18:25:18.240Z,2.50
2018-05-02T18:27:52.377Z,3.23
2018-05-02T18:30:24.975Z,3.33
2018-05-02T18:32:58.600Z,3.40
2018-05-02T18:35:31.580Z,3.90
2018-05-02T18:38:04.416Z,3.30
2018-05-02T18:40:37.750Z,2.93
2018-05-02T18:43:10.519Z,2.83
2018-05-02T18:45:44.727Z,3.03
2018-05-02T18:48:17.384Z,3.57
2018-05-02T18:50:50.756Z,2.73
2018-05-02T18:53:23.312Z,3.07
2018-05-02T18:55:55.865Z,2.90
2018-05-02T18:58:29.081Z,3.30
2018-05-02T19:01:03.965Z,3.40
2018-05-02T19:03:37.766Z,3.53
2018-05-02T19:06:12.431Z,3.73
2018-05-02T19:08:46.950Z,4.00
2018-05-02T19:11:21.365Z,3.33
2018-05-02T19:14:01.669Z,3.40
2018-05-02T19:16:36.839Z,3.40
2018-05-02T19:19:17.563Z,3.60
2018-05-02T19:21:52.137Z,3.07
2018-05-02T19:24:33.648Z,3.37
2018-05-02T19:27:08.473Z,3.70
2018-05-02T19:29:44.122Z,3.67
2018-05-02T19:32:25.267Z,3.33
2018-05-02T19:34:59.479Z,2.70
2018-05-02T19:37:34.892Z,3.93
2018-05-02T19:40:15.318Z,3.60
2018-05-02T19:42:55.982Z,3.80
2018-05-02T19:45:31.369Z,3.20
2018-05-02T19:48:06.172Z,3.27
2018-05-02T19:50:41.096Z,3.93
2018-05-02T19:53:15.601Z,4.27
2018-05-02T19:55:50.372Z,3.37
2018-05-02T19:58:26.456Z,4.47
2018-05-02T20:01:07.544Z,4.57
2018-05-02T20:03:41.640Z,4.43
2018-05-02T20:06:16.377Z,4.43
2018-05-02T20:08:56.817Z,3.87
2018-05-02T20:11:37.429Z,4.37
2018-05-02T20:14:12.940Z,4.47
2018-05-02T20:16:47.880Z,3.97
2018-05-02T20:19:22.093Z,4.43
2018-05-02T20:21:56.097Z,4.97
2018-05-02T20:24:29.906Z,4.07
2018-05-02T20:27:05.652Z,4.53
2018-05-02T20:29:40.829Z,3.40
2018-05-02T20:32:15.154Z,3.90
2018-05-02T20:34:49.255Z,4.80
2018-05-02T20:37:22.680Z,3.77
2018-05-02T20:39:56.034Z,4.50
2018-05-02T20:42:30.175Z,4.20
2018-05-02T20:45:03.089Z,3.90
2018-05-02T20:47:35.987Z,3.70
2018-05-02T20:50:09.298Z,4.30
2018-05-02T20:52:42.485Z,4.37
2018-05-02T20:55:15.979Z,3.97
2018-05-02T20:57:48.435Z,3.50
2018-05-02T21:00:21.691Z,3.50
2018-05-02T21:02:54.622Z,4.23
2018-05-02T21:05:27.079Z,3.53
2018-05-02T21:07:59.661Z,3.80
2018-05-02T21:10:32.804Z,3.37
2018-05-02T21:13:05.524Z,3.53
2018-05-02T21:15:38.921Z,3.20
2018-05-02T21:18:12.243Z,3.70
2018-05-02T21:20:44.899Z,4.10
2018-05-02T21:23:17.533Z,3.47
2018-05-02T21:25:49.951Z,3.57
2018-05-02T21:28:22.511Z,3.73
2018-05-02T21:30:54.873Z,3.37
2018-05-02T21:33:27.455Z,3.70
2018-05-02T21:36:00.560Z,4.00
2018-05-02T21:38:33.442Z,3.50
2018-05-02T21:41:07.541Z,3.63
2018-05-02T21:43:40.113Z,4.30
2018-05-02T21:46:12.644Z,4.77
2018-05-02T21:48:46.037Z,3.80
2018-05-02T21:51:18.843Z,4.77
2018-05-02T21:53:51.937Z,4.90
2018-05-02T21:56:24.379Z,4.53
2018-05-02T21:58:57.345Z,4.20
2018-05-02T22:01:30.157Z,5.27
2018-05-02T22:04:02.850Z,4.40
2018-05-02T22:06:35.280Z,4.30
2018-05-02T22:09:08.035Z,4.50
2018-05-02T22:11:40.710Z,4.07
2018-05-02T22:14:13.266Z,5.90
2018-05-02T22:16:45.855Z,4.33
2018-05-02T22:19:19.394Z,4.60
2018-05-02T22:21:53.499Z,4.43
2018-05-02T22:24:26.336Z,4.50
2018-05-02T22:26:59.612Z,4.07
2018-05-02T22:29:32.583Z,4.73
2018-05-02T22:32:05.162Z,4.60
2018-05-02T22:34:38.557Z,4.50
2018-05-02T22:37:11.117Z,5.00
2018-05-02T22:39:45.395Z,4.13
2018-05-02T22:42:18.131Z,4.33
2018-05-02T22:44:50.871Z,4.20
2018-05-02T22:47:25.083Z,5.50
2018-05-02T22:49:58.337Z,5.03
2018-05-02T22:52:31.025Z,4.23
2018-05-02T22:55:03.521Z,4.73
2018-05-02T22:57:36.807Z,5.17
2018-05-02T23:00:10.962Z,4.87
2018-05-02T23:02:43.748Z,4.33
2018-05-02T23:05:16.336Z,4.47
2018-05-02T23:07:50.184Z,5.23
2018-05-02T23:10:23.167Z,4.57
2018-05-02T23:12:55.934Z,5.10
2018-05-02T23:15:30.684Z,5.33
2018-05-02T23:18:03.363Z,5.07
2018-05-02T23:20:36.301Z,3.93
2018-05-02T23:23:08.838Z,4.70
2018-05-02T23:25:41.222Z,4.30
2018-05-02T23:28:13.603Z,4.80
2018-05-02T23:30:46.959Z,4.63
2018-05-02T23:33:20.428Z,5.43
2018-05-02T23:35:53.835Z,4.90
2018-05-02T23:38:27.309Z,5.13
2018-05-02T23:40:59.801Z,5.20
2018-05-02T23:43:32.295Z,4.83
2018-05-02T23:46:04.779Z,4.93
2018-05-02T23:48:37.324Z,4.90
2018-05-02T23:51:11.482Z,4.13
2018-05-02T23:53:44.109Z,4.40
2018-05-02T23:56:16.678Z,4.37
2018-05-02T23:58:50.031Z,5.33
